Dauntless Aviation
Airports South America Uruguay

Hospital Policial

Montevideo, URUGUAY

Airport Info
Suggest Updated Information for this Airport

Location

Latitude / Longitude: 34°52'4"S / 56°9'6"W
  34°52.068'S / 56°9.114'W
  -34.8678 / -56.1519
Satellite photo at:
Airport distance calculator
From:
Weather Reports

METAR

SUAA
7.8nm NW
SUAA 241500Z 29012KT 9999 SCT033 BKN200 29/19 Q1008
SUMU
8.1nm NE
SUMU 241500Z 27009KT 220V280 9999 SCT030 FEW033TCU 31/17 Q1008NOSIG

TAF

SUAA
7.8nm NW
SUAA 231730Z 2318/2418 14015KT CAVOK TX32/2417Z TN22/2409Z BECMG 2402/2406 01010G20KT BECMG 2415/2417 27012KT 9999 SCT030 BKN080
SUMU
8.1nm NE
SUMU 241130Z 2412/2512 34010KT 9999 FEW026 BKN200 TX31/2418Z TN18/2509Z BECMG 2414/2416 25010KT TEMPO 2418/2506 23018G28KT 5000 TSRA SCT017 FEW040CB OVC070 BECMG 2422/2500 09005KT BECMG 2502/2504 15020KT
Safelog

 

Dauntless Aviation

© 2007-2017 Dauntless Aviation, all rights reserved
Information provided via PilotNav comes from a variety of official and unofficial data sources. As errors are possible, do not use PilotNav for primary flight planning purposes. Verify any information that you receive via PilotNav with current and canonical charts and other official documents. The material in this database is subject to database copyrights held by Dauntless Aviation and may not be copied without the express permission of Dauntless Aviation - licenses for use of part of all of this data are available for purchase; enquire via the Dauntless Aviation helpdesk. A number of mechanisms and markers exist in the database to protect against and identify infringement / copyright. Automated queries against this website are stictly prohibited, and all activity is logged and analyzed.